Time;durP1;ratioP1;P1;durP2;ratioP2;P2;SDS_P1;SDS_P2;PMS_P1;PMS_P2;Temp;Humidity;BMP_temperature;BMP_pressure;BME280_temperature;BME280_humidity;BME280_pressure;Samples;Min_cycle;Max_cycle;Signal;HPM_P1;HPM_P2
2022/08/14 00:01:24;;;;;;;1.38;0.52;;;17.30;81.30;;;;;;5054088;28;20029;-74
2022/08/14 00:03:50;;;;;;;1.35;0.85;;;17.10;82.30;;;;;;5053882;28;20025;-74
2022/08/14 00:06:16;;;;;;;0.28;0.28;;;17.00;82.50;;;;;;5036104;28;20025;-74
2022/08/14 00:08:41;;;;;;;0.10;0.10;;;17.20;82.00;;;;;;5053890;28;20051;-74
2022/08/14 00:11:07;;;;;;;0.13;0.13;;;17.30;81.60;;;;;;5054010;28;20040;-74
2022/08/14 00:13:34;;;;;;;0.10;0.10;;;17.40;81.90;;;;;;5035968;28;20035;-74
2022/08/14 00:16:00;;;;;;;0.45;0.45;;;17.50;81.00;;;;;;5053606;28;20548;-74
2022/08/14 00:18:27;;;;;;;0.60;0.60;;;17.50;81.00;;;;;;5035961;28;20021;-74
2022/08/14 00:20:54;;;;;;;0.20;0.20;;;17.40;80.80;;;;;;5053831;28;20025;-74
2022/08/14 00:23:20;;;;;;;0.77;0.77;;;17.20;81.60;;;;;;5053694;28;20028;-74
2022/08/14 00:25:49;;;;;;;0.32;0.32;;;17.00;82.20;;;;;;5035628;28;20029;-74
2022/08/14 00:28:15;;;;;;;1.13;1.02;;;17.00;82.70;;;;;;5053650;28;20029;-74
2022/08/14 00:30:41;;;;;;;0.90;0.50;;;17.20;82.20;;;;;;5035754;28;20025;-74
2022/08/14 00:33:07;;;;;;;0.40;0.40;;;17.00;82.30;;;;;;5053635;28;20388;-74
2022/08/14 00:35:34;;;;;;;0.38;0.38;;;16.90;82.60;;;;;;5053231;28;20029;-74
2022/08/14 00:38:00;;;;;;;0.90;0.57;;;16.80;83.00;;;;;;5053410;28;20025;-74
2022/08/14 00:40:27;;;;;;;0.25;0.25;;;16.70;83.10;;;;;;5053378;28;20473;-76
2022/08/14 00:42:53;;;;;;;0.10;0.10;;;16.70;83.70;;;;;;5053390;28;20427;-74
2022/08/14 00:45:19;;;;;;;0.10;0.10;;;16.80;83.00;;;;;;5035046;28;20029;-74
2022/08/14 00:47:46;;;;;;;0.10;0.10;;;17.10;82.30;;;;;;5059688;28;20036;-74
2022/08/14 00:50:18;;;;;;;0.10;0.10;;;17.30;80.60;;;;;;5050451;28;20031;-74
2022/08/14 00:52:45;;;;;;;;;;;17.40;80.50;;;;;;5053784;28;20078;-74
2022/08/14 00:55:12;;;;;;;0.17;0.17;;;17.50;80.00;;;;;;5035300;28;19954;-74
2022/08/14 00:57:39;;;;;;;0.10;0.10;;;17.40;79.70;;;;;;5035259;28;20032;-74
2022/08/14 01:00:27;;;;;;;0.30;0.30;;;17.30;80.20;;;;;;5053100;28;20147;-74
2022/08/14 01:02:52;;;;;;;0.10;0.10;;;17.20;80.60;;;;;;5018706;28;20472;-74
2022/08/14 01:05:24;;;;;;;0.55;0.55;;;17.00;81.40;;;;;;5035243;28;20025;-74
2022/08/14 01:07:56;;;;;;;0.10;0.10;;;16.90;81.90;;;;;;5034974;28;20484;-74
2022/08/14 01:10:49;;;;;;;0.10;0.10;;;16.70;82.50;;;;;;5052162;28;20051;-74
2022/08/14 01:13:31;;;;;;;0.10;0.10;;;17.00;81.90;;;;;;5052800;28;20032;-74
2022/08/14 01:16:02;;;;;;;0.20;0.20;;;17.10;81.30;;;;;;5052557;28;20024;-74
2022/08/14 01:21:15;;;;;;;0.10;0.10;;;17.10;81.00;;;;;;5052651;28;20021;-74
2022/08/14 01:23:53;;;;;;;0.10;0.10;;;17.30;80.60;;;;;;5018236;28;20017;-74
2022/08/14 01:26:52;;;;;;;0.20;0.20;;;17.30;80.10;;;;;;5052518;28;20024;-74
2022/08/14 01:29:19;;;;;;;0.10;0.10;;;17.30;80.30;;;;;;5051238;28;20538;-74
2022/08/14 01:31:51;;;;;;;0.15;0.15;;;17.30;80.60;;;;;;5034671;28;20511;-74
2022/08/14 01:34:19;;;;;;;0.10;0.10;;;17.60;80.40;;;;;;5034705;28;20036;-74
2022/08/14 01:36:45;;;;;;;0.63;0.43;;;17.50;80.60;;;;;;5050837;28;20056;-74
2022/08/14 01:39:16;;;;;;;0.25;0.25;;;17.30;80.60;;;;;;5034526;28;20017;-74
2022/08/14 01:41:47;;;;;;;0.10;0.10;;;16.80;82.40;;;;;;5052414;28;20029;-74
2022/08/14 01:44:14;;;;;;;0.38;0.38;;;16.80;83.40;;;;;;5034505;28;20032;-74
2022/08/14 01:46:45;;;;;;;0.10;0.10;;;16.80;83.60;;;;;;5034240;28;20036;-74
2022/08/14 01:49:17;;;;;;;0.10;0.10;;;17.00;83.30;;;;;;5017957;28;20044;-74
2022/08/14 01:51:43;;;;;;;0.10;0.10;;;17.20;82.60;;;;;;5052315;28;20348;-74
2022/08/14 01:54:20;;;;;;;0.10;0.10;;;17.30;81.70;;;;;;5050941;28;20037;-74
2022/08/14 01:56:47;;;;;;;0.10;0.10;;;17.40;81.50;;;;;;5051995;28;20037;-74
2022/08/14 01:59:30;;;;;;;0.05;0.05;;;17.60;81.30;;;;;;5051972;28;20025;-74
2022/08/14 02:01:57;;;;;;;0.82;0.80;;;17.60;80.30;;;;;;5050837;28;20392;-74
2022/08/14 02:04:26;;;;;;;0.60;0.60;;;17.00;82.20;;;;;;5050554;28;20025;-74
2022/08/14 02:06:52;;;;;;;1.00;0.82;;;16.40;84.80;;;;;;5051660;28;20032;-74
2022/08/14 02:09:20;;;;;;;0.20;0.20;;;16.00;87.20;;;;;;5033896;28;20025;-74
2022/08/14 02:11:46;;;;;;;0.98;0.98;;;16.00;88.10;;;;;;5017735;28;20536;-74
2022/08/14 02:14:13;;;;;;;0.63;0.63;;;16.10;88.20;;;;;;5034088;28;20040;-74
2022/08/14 02:16:51;;;;;;;0.60;0.45;;;16.10;88.20;;;;;;5017312;28;20467;-74
2022/08/14 02:19:20;;;;;;;0.43;0.43;;;16.10;88.40;;;;;;5050556;28;20021;-74
2022/08/14 02:21:48;;;;;;;0.28;0.28;;;16.10;88.40;;;;;;5037061;28;20512;-74
2022/08/14 02:24:15;;;;;;;0.30;0.30;;;16.10;89.30;;;;;;5038097;28;20017;-74
2022/08/14 02:26:46;;;;;;;1.45;0.95;;;16.20;88.90;;;;;;5021284;28;20025;-74
2022/08/14 02:29:15;;;;;;;0.20;0.20;;;16.30;88.60;;;;;;5054664;28;20422;-74
2022/08/14 02:31:44;;;;;;;0.10;0.10;;;16.50;88.30;;;;;;5054631;28;20025;-74
2022/08/14 02:34:17;;;;;;;0.28;0.28;;;16.70;86.30;;;;;;5055777;28;20017;-74
2022/08/14 02:36:44;;;;;;;0.10;0.10;;;16.80;85.80;;;;;;5055711;28;20039;-74
2022/08/14 02:39:11;;;;;;;0.20;0.20;;;16.90;85.80;;;;;;5055795;28;20021;-74
2022/08/14 02:41:37;;;;;;;0.17;0.17;;;17.00;85.40;;;;;;5056000;28;20126;-74
2022/08/14 02:44:06;;;;;;;0.10;0.10;;;17.10;85.40;;;;;;5055688;28;20063;-74
2022/08/14 02:46:32;;;;;;;0.10;0.10;;;17.00;85.10;;;;;;5055343;28;20017;-74
2022/08/14 02:48:58;;;;;;;0.75;0.75;;;17.10;85.20;;;;;;5055710;28;20025;-74
2022/08/14 02:51:28;;;;;;;0.10;0.10;;;17.10;84.60;;;;;;5055624;28;20071;-74
2022/08/14 02:53:55;;;;;;;0.10;0.10;;;17.10;84.90;;;;;;5055716;28;20021;-74
2022/08/14 02:56:21;;;;;;;0.10;0.10;;;17.10;85.70;;;;;;5037621;28;20071;-74
2022/08/14 02:58:49;;;;;;;0.10;0.10;;;17.00;85.80;;;;;;5037402;28;20029;-74
2022/08/14 03:01:17;;;;;;;0.10;0.10;;;17.00;85.60;;;;;;5053992;28;20079;-74
2022/08/14 03:03:44;;;;;;;0.30;0.30;;;16.80;86.60;;;;;;5037206;28;20028;-74
2022/08/14 03:06:12;;;;;;;0.10;0.10;;;16.80;86.40;;;;;;5037325;28;20384;-74
2022/08/14 03:08:39;;;;;;;0.10;0.10;;;16.80;86.80;;;;;;5055471;28;20411;-74
2022/08/14 03:11:08;;;;;;;0.20;0.20;;;16.90;86.20;;;;;;5020838;28;20338;-74
2022/08/14 03:13:39;;;;;;;0.10;0.10;;;16.90;86.30;;;;;;5055099;28;20045;-74
2022/08/14 03:16:07;;;;;;;0.10;0.10;;;16.80;87.50;;;;;;5053655;28;20025;-74
2022/08/14 03:18:33;;;;;;;0.10;0.10;;;16.80;87.70;;;;;;5055074;28;20306;-74
2022/08/14 03:21:01;;;;;;;0.10;0.10;;;16.90;87.70;;;;;;5055130;28;20127;-74
2022/08/14 03:23:27;;;;;;;0.20;0.20;;;16.80;88.40;;;;;;5055517;28;20032;-74
2022/08/14 03:25:53;;;;;;;0.10;0.10;;;17.10;87.40;;;;;;5036819;28;20025;-74
2022/08/14 03:28:19;;;;;;;0.10;0.10;;;17.20;86.50;;;;;;5054891;28;20468;-74
2022/08/14 03:30:45;;;;;;;0.10;0.10;;;17.20;86.20;;;;;;5036868;28;20021;-74
2022/08/14 03:33:11;;;;;;;0.13;0.13;;;17.20;86.70;;;;;;5035988;28;20075;-74
2022/08/14 03:35:40;;;;;;;0.03;0.03;;;17.10;87.20;;;;;;5020375;28;20083;-74
2022/08/14 03:38:11;;;;;;;0.10;0.10;;;17.10;86.30;;;;;;5054704;28;20020;-75
2022/08/14 03:40:39;;;;;;;0.10;0.10;;;17.30;86.40;;;;;;5037080;28;20025;-74
2022/08/14 03:43:09;;;;;;;0.10;0.10;;;17.30;86.40;;;;;;5053590;28;20033;-74
2022/08/14 03:45:36;;;;;;;0.10;0.10;;;17.30;85.80;;;;;;5084206;22;20093;-73
2022/08/14 03:48:18;;;;;;;0.10;0.10;;;17.30;85.70;;;;;;5073230;28;20025;-74
2022/08/14 03:50:50;;;;;;;0.10;0.10;;;17.10;86.60;;;;;;5074661;28;20021;-73
2022/08/14 03:53:18;;;;;;;0.00;0.00;;;16.80;87.70;;;;;;5074696;28;20430;-74
2022/08/14 03:55:45;;;;;;;0.10;0.10;;;16.40;90.30;;;;;;5074579;28;20025;-75
2022/08/14 03:58:12;;;;;;;0.10;0.10;;;16.30;91.80;;;;;;5074440;28;20067;-75
2022/08/14 04:00:39;;;;;;;0.15;0.15;;;16.20;91.90;;;;;;5073126;28;20021;-74
2022/08/14 04:03:07;;;;;;;0.10;0.10;;;16.40;93.10;;;;;;5074258;28;20031;-74
2022/08/14 04:05:34;;;;;;;0.20;0.20;;;16.60;92.10;;;;;;5074298;28;20024;-73
2022/08/14 04:07:59;;;;;;;0.10;0.10;;;16.70;91.20;;;;;;5073037;28;20020;-75
2022/08/14 04:10:25;;;;;;;0.10;0.10;;;16.70;91.40;;;;;;5073132;28;20025;-73
2022/08/14 04:12:51;;;;;;;0.10;0.10;;;16.80;91.40;;;;;;5072965;28;20059;-73
2022/08/14 04:15:20;;;;;;;0.20;0.20;;;16.70;91.10;;;;;;5074011;28;20047;-73
2022/08/14 04:17:46;;;;;;;0.20;0.20;;;16.40;92.00;;;;;;5073980;28;20033;-73
2022/08/14 04:20:12;;;;;;;0.10;0.10;;;16.20;93.40;;;;;;5074156;28;20032;-73
2022/08/14 04:22:42;;;;;;;0.10;0.10;;;16.30;93.30;;;;;;5074107;28;20029;-74
2022/08/14 04:25:09;;;;;;;0.30;0.30;;;16.50;93.00;;;;;;5073857;28;20021;-74
2022/08/14 04:27:36;;;;;;;0.15;0.15;;;16.70;92.20;;;;;;5073670;28;20071;-73
2022/08/14 04:30:04;;;;;;;0.10;0.10;;;16.90;91.40;;;;;;5072515;28;20048;-76
2022/08/14 04:32:32;;;;;;;0.15;0.15;;;17.10;90.10;;;;;;5072577;28;20052;-74
2022/08/14 04:35:02;;;;;;;0.10;0.10;;;17.10;88.00;;;;;;5073591;28;20476;-74
2022/08/14 04:45:42;;;;;;;0.20;0.20;;;16.00;93.20;;;;;;5073362;28;20488;-74
2022/08/14 04:48:13;;;;;;;0.10;0.10;;;16.00;94.30;;;;;;5073502;28;20091;-73
2022/08/14 04:50:52;;;;;;;0.10;0.10;;;16.20;93.70;;;;;;5073517;28;20057;-73
2022/08/14 04:53:21;;;;;;;0.10;0.10;;;16.20;93.70;;;;;;5073420;28;20607;-73
2022/08/14 04:55:48;;;;;;;0.22;0.22;;;16.20;93.60;;;;;;5073227;28;20022;-73
2022/08/14 04:58:19;;;;;;;0.10;0.10;;;16.00;94.90;;;;;;5055317;28;20043;-74
2022/08/14 05:00:49;;;;;;;0.10;0.10;;;16.10;95.00;;;;;;5073183;28;20032;-73
2022/08/14 05:03:20;;;;;;;0.10;0.10;;;16.40;94.60;;;;;;5071789;28;20028;-73
2022/08/14 05:05:51;;;;;;;0.22;0.22;;;16.60;94.40;;;;;;5071567;28;20028;-73
2022/08/14 05:08:17;;;;;;;0.10;0.10;;;16.70;92.60;;;;;;5073096;28;20028;-74
2022/08/14 05:10:49;;;;;;;0.15;0.15;;;16.60;94.00;;;;;;5071864;28;20025;-74
2022/08/14 05:13:15;;;;;;;0.10;0.10;;;16.60;93.80;;;;;;5071831;28;20134;-73
2022/08/14 05:15:43;;;;;;;0.20;0.20;;;16.70;92.90;;;;;;5054920;28;20063;-74
2022/08/14 05:18:12;;;;;;;0.10;0.10;;;16.70;93.50;;;;;;5072891;28;20024;-73
2022/08/14 05:20:39;;;;;;;0.10;0.10;;;16.70;93.50;;;;;;5072837;28;20092;-73
2022/08/14 05:23:06;;;;;;;0.10;0.10;;;16.70;94.30;;;;;;5072834;28;20494;-73
2022/08/14 05:25:33;;;;;;;0.10;0.10;;;16.60;95.00;;;;;;5071613;28;20048;-73
2022/08/14 05:28:18;;;;;;;0.00;0.00;;;16.70;95.30;;;;;;5072588;28;20031;-74
2022/08/14 05:30:55;;;;;;;0.10;0.10;;;16.80;95.60;;;;;;5072972;28;20423;-74
2022/08/14 05:33:23;;;;;;;0.10;0.10;;;16.80;96.50;;;;;;5071478;28;20020;-74
2022/08/14 05:35:51;;;;;;;0.20;0.20;;;17.00;96.50;;;;;;5072538;28;20386;-73
2022/08/14 05:38:19;;;;;;;0.10;0.10;;;17.20;96.10;;;;;;5071506;28;20028;-74
2022/08/14 05:40:46;;;;;;;0.10;0.10;;;17.50;95.60;;;;;;5054767;28;20021;-74
2022/08/14 05:43:13;;;;;;;0.10;0.10;;;17.70;94.30;;;;;;5072522;28;20074;-73
2022/08/14 05:45:39;;;;;;;0.10;0.10;;;18.00;94.00;;;;;;5072373;28;20075;-73
2022/08/14 05:48:06;;;;;;;0.15;0.15;;;18.00;93.80;;;;;;5072423;28;20028;-76
2022/08/14 05:50:33;;;;;;;0.10;0.10;;;18.10;94.00;;;;;;5071212;28;20016;-74
2022/08/14 05:52:59;;;;;;;0.10;0.10;;;18.20;93.70;;;;;;5071167;28;20105;-74
2022/08/14 05:55:25;;;;;;;0.10;0.10;;;18.20;94.00;;;;;;5071714;28;20027;-74
2022/08/14 05:57:55;;;;;;;0.10;0.10;;;18.20;93.90;;;;;;5071183;28;20103;-73
2022/08/14 06:00:25;;;;;;;0.10;0.10;;;18.10;95.10;;;;;;5072270;28;20107;-75
2022/08/14 06:02:51;;;;;;;0.10;0.10;;;18.20;95.70;;;;;;5071048;28;20036;-74
2022/08/14 06:05:17;;;;;;;0.10;0.10;;;18.40;95.50;;;;;;5072018;28;20032;-74
2022/08/14 06:07:43;;;;;;;0.10;0.10;;;18.60;94.80;;;;;;5071982;28;20488;-73
2022/08/14 06:10:09;;;;;;;0.10;0.10;;;18.70;94.30;;;;;;5071038;28;20059;-73
2022/08/14 06:12:36;;;;;;;0.08;0.08;;;18.80;94.60;;;;;;5072059;28;20032;-74
2022/08/14 06:15:04;;;;;;;0.10;0.10;;;19.00;94.80;;;;;;5054027;28;20032;-74
2022/08/14 06:17:30;;;;;;;0.10;0.10;;;19.20;94.60;;;;;;5071867;28;20480;-74
2022/08/14 06:19:56;;;;;;;0.00;0.00;;;19.30;93.90;;;;;;5070770;28;20032;-73
2022/08/14 06:22:22;;;;;;;0.10;0.10;;;19.40;93.20;;;;;;5072185;28;20032;-74
2022/08/14 06:24:47;;;;;;;0.05;0.05;;;19.50;92.20;;;;;;5053284;28;20028;-74
2022/08/14 06:27:13;;;;;;;0.10;0.10;;;19.60;91.70;;;;;;5061613;28;20028;-74
2022/08/14 06:29:39;;;;;;;0.10;0.10;;;19.70;91.40;;;;;;5053851;28;20036;-73
2022/08/14 06:32:05;;;;;;;0.10;0.10;;;19.70;91.20;;;;;;5070839;28;20032;-74
2022/08/14 06:34:31;;;;;;;0.10;0.10;;;19.80;90.80;;;;;;5070823;28;20294;-74
2022/08/14 06:36:57;;;;;;;0.10;0.10;;;20.00;90.10;;;;;;5053877;28;20063;-74
2022/08/14 06:39:23;;;;;;;0.10;0.10;;;20.20;89.80;;;;;;5071517;28;20291;-74
2022/08/14 06:41:49;;;;;;;0.00;0.00;;;20.40;87.90;;;;;;5071654;28;20028;-73
2022/08/14 06:44:15;;;;;;;1.40;1.35;;;20.50;87.90;;;;;;5070592;28;20365;-74
2022/08/14 06:46:41;;;;;;;0.00;0.00;;;20.70;87.30;;;;;;5071530;28;20094;-74
2022/08/14 06:49:06;;;;;;;0.10;0.10;;;20.70;85.80;;;;;;5070425;28;20044;-74
2022/08/14 06:51:34;;;;;;;0.00;0.00;;;20.70;85.60;;;;;;5070534;28;20024;-74
2022/08/14 06:54:00;;;;;;;0.10;0.10;;;20.70;85.10;;;;;;5071889;28;20028;-74
2022/08/14 06:56:26;;;;;;;0.10;0.10;;;20.70;83.50;;;;;;5070229;28;20085;-74
2022/08/14 06:58:52;;;;;;;1.48;1.38;;;20.90;83.20;;;;;;5071384;28;20028;-74
2022/08/14 07:06:46;;;;;;;0.05;0.05;;;21.00;79.70;;;;;;5071250;28;20586;-74
2022/08/14 07:09:12;;;;;;;0.10;0.10;;;21.20;78.70;;;;;;5074776;28;20020;-73
2022/08/14 07:11:38;;;;;;;0.10;0.10;;;21.40;80.50;;;;;;5073919;28;20024;-73
2022/08/14 07:14:04;;;;;;;0.10;0.10;;;21.60;80.90;;;;;;5075077;28;20040;-74
2022/08/14 07:16:30;;;;;;;0.10;0.10;;;21.70;80.80;;;;;;5073750;28;20036;-74
2022/08/14 07:18:56;;;;;;;1.73;1.63;;;21.90;77.90;;;;;;5075038;28;20028;-75
2022/08/14 07:21:21;;;;;;;0.10;0.10;;;21.90;76.20;;;;;;5073867;28;20036;-74
2022/08/14 07:23:47;;;;;;;0.10;0.10;;;22.00;76.90;;;;;;5073707;28;20035;-74
2022/08/14 07:26:13;;;;;;;0.10;0.10;;;22.20;76.90;;;;;;5073803;28;20020;-74
2022/08/14 07:28:39;;;;;;;0.10;0.10;;;22.20;74.80;;;;;;5073479;28;20024;-74
2022/08/14 07:31:08;;;;;;;0.10;0.10;;;22.40;75.80;;;;;;5075115;28;20024;-74
2022/08/14 07:33:45;;;;;;;0.00;0.00;;;22.50;76.90;;;;;;5074877;28;20075;-74
2022/08/14 07:36:13;;;;;;;0.05;0.05;;;22.60;74.50;;;;;;5073527;28;20456;-74
2022/08/14 07:38:40;;;;;;;0.00;0.00;;;22.70;74.50;;;;;;5074730;28;20517;-74
2022/08/14 07:41:08;;;;;;;0.00;0.00;;;22.70;76.10;;;;;;5073851;28;20025;-74
2022/08/14 07:43:35;;;;;;;0.00;0.00;;;22.80;75.50;;;;;;5074835;28;20021;-74
2022/08/14 07:46:01;;;;;;;0.00;0.00;;;22.80;77.30;;;;;;5073249;28;20032;-73
2022/08/14 07:48:27;;;;;;;0.35;0.35;;;22.90;75.60;;;;;;5074466;28;20051;-74
2022/08/14 07:50:53;;;;;;;0.20;0.20;;;23.00;75.10;;;;;;5056606;28;20017;-74
2022/08/14 07:53:20;;;;;;;0.10;0.10;;;23.00;75.10;;;;;;5073259;28;20499;-73
2022/08/14 07:55:46;;;;;;;1.08;0.65;;;23.10;73.40;;;;;;5074316;28;20131;-74
2022/08/14 07:58:13;;;;;;;1.05;0.95;;;23.20;72.80;;;;;;5073103;28;20369;-74
2022/08/14 08:00:41;;;;;;;0.32;0.28;;;23.10;69.40;;;;;;5073262;28;20024;-74
2022/08/14 08:03:10;;;;;;;0.20;0.20;;;23.40;69.60;;;;;;5056334;28;20017;-74
2022/08/14 08:05:38;;;;;;;0.10;0.10;;;23.60;68.80;;;;;;5074164;28;20464;-74
2022/08/14 08:08:06;;;;;;;0.00;0.00;;;23.70;67.20;;;;;;5073192;28;20040;-74
2022/08/14 08:10:33;;;;;;;0.68;0.57;;;23.80;65.70;;;;;;5074677;28;20091;-74
2022/08/14 08:13:06;;;;;;;0.40;0.40;;;24.00;65.90;;;;;;5074276;28;20021;-74
2022/08/14 08:15:44;;;;;;;0.68;0.68;;;24.00;65.70;;;;;;5074514;28;20013;-74
2022/08/14 08:18:12;;;;;;;0.00;0.00;;;24.10;63.90;;;;;;5073898;28;20021;-75
2022/08/14 08:20:47;;;;;;;0.63;0.38;;;24.20;63.00;;;;;;5073976;28;20028;-74
2022/08/14 08:23:15;;;;;;;0.13;0.13;;;24.20;62.50;;;;;;5073018;28;20023;-75
2022/08/14 08:25:46;;;;;;;0.20;0.20;;;24.30;62.50;;;;;;5056067;28;20016;-74
2022/08/14 08:28:15;;;;;;;0.00;0.00;;;24.30;63.00;;;;;;5074228;28;20020;-74
2022/08/14 08:30:55;;;;;;;0.00;0.00;;;24.50;63.50;;;;;;5073175;28;20072;-73
2022/08/14 08:33:23;;;;;;;0.10;0.10;;;24.70;62.70;;;;;;5072939;28;20090;-75
2022/08/14 08:35:49;;;;;;;0.10;0.10;;;24.70;60.30;;;;;;5072682;28;20446;-74
2022/08/14 08:38:18;;;;;;;0.10;0.10;;;24.70;61.50;;;;;;5072833;28;20063;-75
2022/08/14 08:40:47;;;;;;;0.43;0.35;;;24.70;61.50;;;;;;5074036;28;20017;-75
2022/08/14 08:43:31;;;;;;;0.17;0.17;;;24.90;61.10;;;;;;5073178;28;20138;-74
2022/08/14 08:46:05;;;;;;;0.00;0.00;;;25.10;59.80;;;;;;5073294;28;20112;-75
2022/08/14 08:48:58;;;;;;;0.00;0.00;;;25.20;59.90;;;;;;5071329;28;20017;-75
2022/08/14 08:51:31;;;;;;;2.92;0.98;;;25.40;60.40;;;;;;5073731;28;20036;-75
2022/08/14 08:53:59;;;;;;;0.08;0.08;;;25.50;59.50;;;;;;5074271;28;20104;-76
2022/08/14 08:56:48;;;;;;;0.10;0.10;;;25.50;58.90;;;;;;5071942;28;20435;-76
2022/08/14 08:59:19;;;;;;;1.48;0.57;;;25.60;58.10;;;;;;5072284;28;20028;-75
2022/08/14 09:01:50;;;;;;;0.60;0.47;;;25.70;58.10;;;;;;5073462;28;20095;-75
2022/08/14 09:04:18;;;;;;;0.32;0.20;;;25.90;59.00;;;;;;5073450;28;20028;-76
2022/08/14 09:06:46;;;;;;;0.10;0.10;;;26.10;58.60;;;;;;5072996;28;20384;-76
2022/08/14 09:09:18;;;;;;;0.43;0.43;;;26.30;57.40;;;;;;5055241;28;20082;-76
2022/08/14 09:11:44;;;;;;;0.80;0.20;;;26.50;56.70;;;;;;5072789;28;20067;-76
2022/08/14 09:14:10;;;;;;;0.30;0.30;;;26.80;55.90;;;;;;5072091;28;20021;-76
2022/08/14 09:16:36;;;;;;;0.52;0.50;;;27.00;55.50;;;;;;5073151;28;20511;-76
2022/08/14 09:19:02;;;;;;;0.32;0.32;;;27.20;55.00;;;;;;5073683;28;20017;-76
2022/08/14 09:21:29;;;;;;;0.60;0.43;;;27.30;54.80;;;;;;5055542;28;20040;-76
2022/08/14 09:23:55;;;;;;;0.43;0.43;;;27.50;54.50;;;;;;5073326;28;20025;-76
2022/08/14 09:26:21;;;;;;;0.00;0.00;;;27.50;54.50;;;;;;5071737;28;20036;-73
2022/08/14 09:28:47;;;;;;;0.20;0.17;;;27.80;53.90;;;;;;5073087;28;20494;-76
2022/08/14 09:31:15;;;;;;;0.20;0.15;;;27.60;52.10;;;;;;5072357;28;20029;-76
2022/08/14 09:34:11;;;;;;;0.47;0.20;;;27.80;50.60;;;;;;5071936;28;20035;-76
2022/08/14 09:37:24;;;;;;;0.30;0.28;;;28.20;50.00;;;;;;5054961;28;20033;-74
2022/08/14 09:40:05;;;;;;;0.00;0.00;;;28.70;49.60;;;;;;5071698;28;20025;-74
2022/08/14 09:42:56;;;;;;;0.05;0.05;;;28.60;50.10;;;;;;5073234;28;20369;-76
2022/08/14 09:45:46;;;;;;;0.13;0.13;;;28.70;50.60;;;;;;5085996;22;20049;-71
2022/08/14 09:48:23;;;;;;;0.47;0.47;;;28.80;49.10;;;;;;5075803;28;20033;-72
2022/08/14 09:50:55;;;;;;;0.00;0.00;;;28.90;48.80;;;;;;5072444;28;20024;-72
2022/08/14 09:53:40;;;;;;;0.00;0.00;;;28.60;50.00;;;;;;5072245;28;20060;-71
2022/08/14 09:56:07;;;;;;;0.00;0.00;;;28.80;49.70;;;;;;5072191;28;20037;-72
2022/08/14 09:58:44;;;;;;;0.20;0.20;;;29.10;48.50;;;;;;5072214;28;20369;-74
2022/08/14 10:01:13;;;;;;;0.15;0.15;;;29.10;47.50;;;;;;5070733;28;20040;-75
2022/08/14 10:03:55;;;;;;;0.47;0.30;;;29.60;47.20;;;;;;5070977;28;20017;-75
2022/08/14 10:06:26;;;;;;;0.00;0.00;;;29.80;45.70;;;;;;5072079;28;20021;-73
2022/08/14 10:08:56;;;;;;;;;;;29.80;46.70;;;;;;5071281;28;20036;-76
2022/08/14 10:11:30;;;;;;;0.00;0.00;;;29.80;47.20;;;;;;5071213;28;19975;-75
2022/08/14 10:14:09;;;;;;;0.05;0.05;;;30.10;45.90;;;;;;5072234;28;20032;-74
2022/08/14 10:16:41;;;;;;;0.90;0.30;;;29.80;45.30;;;;;;5071773;28;20565;-75
2022/08/14 10:19:11;;;;;;;0.68;0.65;;;30.10;45.40;;;;;;5070698;28;20518;-75
2022/08/14 10:21:40;;;;;;;3.33;0.60;;;29.80;45.00;;;;;;5071870;28;20082;-75
2022/08/14 10:24:09;;;;;;;0.10;0.10;;;29.80;44.40;;;;;;5079025;28;20021;-75
2022/08/14 10:26:35;;;;;;;0.15;0.05;;;30.20;44.70;;;;;;5071841;28;20039;-75
2022/08/14 10:29:10;;;;;;;1.02;0.50;;;30.50;44.40;;;;;;5071764;28;20036;-75
2022/08/14 10:31:36;;;;;;;0.00;0.00;;;30.80;43.70;;;;;;5071803;28;20513;-75
2022/08/14 10:34:17;;;;;;;0.32;0.32;;;30.60;44.20;;;;;;5070582;28;20029;-75
2022/08/14 10:36:47;;;;;;;0.00;0.00;;;30.50;45.20;;;;;;5071349;28;20029;-75
2022/08/14 10:39:16;;;;;;;0.13;0.13;;;30.70;45.20;;;;;;5075607;28;20107;-75
2022/08/14 10:41:44;;;;;;;2.20;0.95;;;30.70;44.40;;;;;;5074354;28;20024;-75
2022/08/14 10:44:17;;;;;;;0.10;0.10;;;30.90;44.40;;;;;;5075685;28;20031;-76
2022/08/14 10:46:53;;;;;;;0.30;0.30;;;31.10;44.50;;;;;;5075830;28;20082;-76
2022/08/14 10:49:22;;;;;;;0.00;0.00;;;31.10;44.50;;;;;;5074189;28;20031;-76
2022/08/14 10:52:05;;;;;;;0.03;0.03;;;31.50;42.30;;;;;;5075557;28;20048;-76
2022/08/14 10:54:34;;;;;;;0.00;0.00;;;31.60;41.90;;;;;;5074273;28;20032;-76
2022/08/14 10:57:25;;;;;;;0.35;0.20;;;31.90;41.20;;;;;;5075288;28;20031;-76
2022/08/14 10:59:54;;;;;;;0.00;0.00;;;31.90;40.90;;;;;;5074237;28;20025;-76
2022/08/14 11:02:29;;;;;;;0.00;0.00;;;32.10;41.70;;;;;;5074540;28;20103;-75
2022/08/14 11:05:12;;;;;;;0.00;0.00;;;32.30;41.10;;;;;;5075193;28;20502;-75
2022/08/14 11:07:40;;;;;;;0.00;0.00;;;32.50;40.90;;;;;;5075019;28;20036;-75
2022/08/14 11:10:10;;;;;;;0.00;0.00;;;32.80;40.40;;;;;;5075262;28;20028;-75
2022/08/14 11:12:54;;;;;;;0.00;0.00;;;33.00;40.10;;;;;;5073865;28;20035;-75
2022/08/14 11:15:26;;;;;;;0.13;0.13;;;32.90;40.00;;;;;;5064513;28;20047;-75
2022/08/14 11:17:53;;;;;;;0.10;0.10;;;33.00;39.50;;;;;;5063059;28;20533;-75
2022/08/14 11:20:22;;;;;;;0.17;0.10;;;33.10;39.40;;;;;;5066371;28;20476;-75
2022/08/14 11:22:53;;;;;;;0.08;0.08;;;33.20;39.50;;;;;;5074957;28;20027;-75
2022/08/14 11:25:22;;;;;;;;;;;33.40;39.00;;;;;;5069437;28;20017;-75
2022/08/14 11:27:49;;;;;;;0.52;0.52;;;33.30;39.40;;;;;;5053691;28;19905;-75
2022/08/14 11:30:21;;;;;;;0.17;0.17;;;33.50;39.40;;;;;;5054940;28;20021;-75
2022/08/14 11:32:49;;;;;;;0.47;0.47;;;33.30;38.50;;;;;;5054960;28;20029;-75
2022/08/14 11:35:20;;;;;;;0.00;0.00;;;32.70;39.40;;;;;;5055009;28;20396;-75
2022/08/14 11:37:53;;;;;;;1.60;0.95;;;33.10;38.80;;;;;;5054752;28;20063;-75
2022/08/14 11:40:20;;;;;;;0.00;0.00;;;32.40;37.40;;;;;;5054760;28;20025;-74
2022/08/14 11:42:48;;;;;;;0.45;0.30;;;32.60;39.10;;;;;;5054588;28;20071;-75
2022/08/14 11:45:14;;;;;;;0.08;0.03;;;32.80;39.80;;;;;;5054470;28;20295;-75
2022/08/14 11:47:40;;;;;;;0.00;0.00;;;33.10;40.10;;;;;;5054412;28;20392;-74
2022/08/14 11:50:16;;;;;;;1.00;0.52;;;32.80;39.00;;;;;;5054514;28;20021;-75
2022/08/14 11:52:43;;;;;;;0.00;0.00;;;32.40;39.10;;;;;;5054308;28;20031;-74
2022/08/14 11:55:12;;;;;;;0.30;0.30;;;32.80;38.90;;;;;;5053881;28;20021;-75
2022/08/14 11:57:39;;;;;;;0.00;0.00;;;32.90;37.80;;;;;;5036542;28;20021;-75
2022/08/14 12:00:09;;;;;;;0.00;0.00;;;32.70;38.00;;;;;;5054676;28;20104;-75
2022/08/14 12:02:35;;;;;;;0.20;0.10;;;32.70;38.80;;;;;;5054306;28;20388;-75
2022/08/14 12:05:04;;;;;;;0.10;0.10;;;32.80;38.40;;;;;;5054279;28;20025;-75
2022/08/14 12:07:30;;;;;;;0.10;0.10;;;32.50;37.30;;;;;;5054257;28;20438;-74
2022/08/14 12:09:57;;;;;;;0.35;0.35;;;32.70;36.80;;;;;;5054169;28;20021;-74
2022/08/14 12:12:25;;;;;;;0.30;0.30;;;32.30;37.70;;;;;;5054148;28;20021;-75
2022/08/14 12:14:55;;;;;;;0.08;0.08;;;32.40;36.70;;;;;;5067418;28;20109;-75
2022/08/14 12:17:23;;;;;;;0.00;0.00;;;31.70;39.20;;;;;;5066992;28;20063;-76
2022/08/14 12:19:57;;;;;;;0.00;0.00;;;32.00;39.40;;;;;;5088428;28;20023;-76
2022/08/14 12:22:41;;;;;;;2.17;1.08;;;31.70;37.40;;;;;;5092086;28;20058;-76
2022/08/14 12:25:13;;;;;;;0.60;0.20;;;31.60;38.80;;;;;;5092383;28;20012;-76
2022/08/14 12:27:41;;;;;;;0.00;0.00;;;31.50;38.30;;;;;;5092853;28;20024;-76
2022/08/14 12:30:08;;;;;;;0.00;0.00;;;31.20;37.00;;;;;;5092721;28;20031;-74
2022/08/14 12:32:43;;;;;;;0.00;0.00;;;31.40;37.90;;;;;;5092620;28;20056;-76
2022/08/14 12:35:09;;;;;;;0.08;0.08;;;31.30;36.60;;;;;;5091887;28;20119;-75
2022/08/14 12:37:37;;;;;;;0.00;0.00;;;31.00;36.20;;;;;;5093750;28;20032;-75
2022/08/14 12:40:11;;;;;;;1.55;0.57;;;31.00;36.20;;;;;;5093860;28;20016;-75
2022/08/14 12:42:37;;;;;;;0.00;0.00;;;31.30;35.70;;;;;;5093958;28;20030;-75
2022/08/14 12:45:05;;;;;;;0.00;0.00;;;31.20;36.00;;;;;;5093828;28;20051;-75
2022/08/14 12:47:31;;;;;;;0.00;0.00;;;31.60;36.40;;;;;;5092644;28;20107;-75
2022/08/14 12:49:57;;;;;;;0.10;0.10;;;31.90;35.20;;;;;;5093766;28;20044;-75
2022/08/14 12:52:39;;;;;;;0.00;0.00;;;32.00;35.70;;;;;;5092542;28;20328;-75
2022/08/14 12:55:19;;;;;;;0.00;0.00;;;31.50;35.80;;;;;;5093468;28;20111;-75
2022/08/14 12:57:46;;;;;;;0.30;0.30;;;31.30;35.60;;;;;;5092199;28;20031;-75
2022/08/14 13:00:16;;;;;;;0.00;0.00;;;30.90;35.90;;;;;;5093559;28;20081;-75
2022/08/14 13:02:43;;;;;;;0.05;0.05;;;30.80;36.80;;;;;;5075277;28;20024;-76
2022/08/14 13:05:11;;;;;;;0.00;0.00;;;30.80;37.50;;;;;;5092363;28;20023;-76
2022/08/14 13:07:39;;;;;;;0.00;0.00;;;30.70;37.00;;;;;;5093229;28;20020;-75
2022/08/14 13:10:13;;;;;;;0.20;0.20;;;30.80;37.40;;;;;;5092087;28;20039;-76
2022/08/14 13:12:40;;;;;;;0.00;0.00;;;30.80;36.90;;;;;;5093196;28;20024;-75
2022/08/14 13:15:08;;;;;;;1.55;1.45;;;30.90;36.80;;;;;;5092925;28;20107;-75
2022/08/14 13:17:46;;;;;;;0.00;0.00;;;30.70;36.90;;;;;;5093228;28;20073;-76